Estación Meteorológica Peña el Pijo (Robertgarden) [ 09/26/18 05:16:58 CEST ]

Fecha Hora Presion(HPa) Temp (°C) Humedad % Rocio (°C) Viento ( m/s) Direccion Lluvia 1Hora(mm) Lluvia 24H(mm) LLuvia Total(mm)
2018-Sep-17 01:01:42 1014.200 14.9 84 12.2         350.68
2018-Sep-17 02:01:56 1013.400 14.4 86 12.1         350.68
2018-Sep-17 03:01:37 1013.100 14.0 88 12.0         350.68
2018-Sep-17 04:01:46 1012.800 13.8 88 11.8         350.68
2018-Sep-17 05:01:44 1012.700 12.9 89 11.1         350.68
2018-Sep-17 06:01:46 1012.800 12.3 89 10.5         350.68
2018-Sep-17 07:01:38 1012.300 12.2 90 10.6         350.68
2018-Sep-17 08:01:46 1012.400 11.8 90 10.2         350.68
2018-Sep-17 09:01:41 1012.300 12.7 91 11.3         350.68
2018-Sep-17 10:01:50 1012.200 17.3 92 16.0         350.68
2018-Sep-17 11:01:54 1012.200 19.9 81 16.6 1.7 NE     350.68
2018-Sep-17 12:01:36 1012.600 24.8 63 17.3         350.68
2018-Sep-17 13:01:48 1012.300 23.1 66 16.4 1.0 N     350.68
2018-Sep-17 14:01:46 1012.100 21.8 69 15.9 0.5 NNW     350.68
2018-Sep-17 15:01:49 1011.000 21.1 71 15.6         350.68
2018-Sep-17 16:01:42 1011.200 20.6 75 16.0         350.68
2018-Sep-17 17:01:42 1011.400 19.9 74 15.1         350.68
2018-Sep-17 18:01:47 1010.300 15.5 80 12.1     1.03 1.03 351.72
2018-Sep-17 19:02:00 1009.700 15.9 83 13.0       1.03 351.72
2018-Sep-17 20:01:43 1009.900 15.8 84 13.1       1.03 351.72
2018-Sep-17 21:01:47 1010.300 15.1 85 12.6       1.03 351.72
2018-Sep-17 22:01:56 1010.900 14.9 87 12.8       1.03 351.72
2018-Sep-17 23:01:47 1010.600 14.4 87 12.3       1.03 351.72

Temperatura Máxima:24°    Temperatura Mínima:11°
Presión Máxima:1014.200 Hpa    Presión Mínima:1009.700 Hpa


Volver